Time;durP1;ratioP1;P1;durP2;ratioP2;P2;SDS_P1;SDS_P2;PMS_P1;PMS_P2;Temp;Humidity;BMP_temperature;BMP_pressure;BME280_temperature;BME280_humidity;BME280_pressure;Samples;Min_cycle;Max_cycle;Signal;HPM_P1;HPM_P2
2021/01/02 00:01:43;;;;;;;16.43;10.40;;;4.30;99.90;;;;;;4967094;28;20968;-80
2021/01/02 00:04:47;;;;;;;13.20;9.43;;;4.30;99.90;;;;;;4947351;28;20417;-81
2021/01/02 00:07:46;;;;;;;18.00;11.37;;;4.30;99.90;;;;;;4986693;28;20404;-80
2021/01/02 00:10:19;;;;;;;13.73;8.87;;;4.20;99.90;;;;;;5004790;28;20525;-80
2021/01/02 00:13:11;;;;;;;19.57;10.57;;;4.20;99.90;;;;;;5005095;28;20498;-80
2021/01/02 00:15:57;;;;;;;20.80;10.10;;;4.20;99.90;;;;;;4987651;28;20404;-80
2021/01/02 00:18:37;;;;;;;11.70;9.43;;;4.20;99.90;;;;;;4986706;28;20447;-80
2021/01/02 00:21:30;;;;;;;11.73;8.33;;;4.30;99.90;;;;;;5008552;28;20406;-77
2021/01/02 00:24:35;;;;;;;12.07;8.23;;;4.30;99.90;;;;;;4998837;28;20394;-77
2021/01/02 00:27:05;;;;;;;10.47;8.37;;;4.30;99.90;;;;;;4959517;29;20447;-78
2021/01/02 00:29:59;;;;;;;11.07;7.83;;;4.20;99.90;;;;;;4958251;29;20415;-80
2021/01/02 00:32:45;;;;;;;10.97;7.90;;;4.30;99.90;;;;;;4955441;29;20480;-80
2021/01/02 00:35:20;;;;;;;13.47;8.57;;;4.20;99.90;;;;;;4969305;28;20405;-79
2021/01/02 00:38:05;;;;;;;8.97;7.97;;;4.20;99.90;;;;;;4955846;28;20408;-80
2021/01/02 00:40:34;;;;;;;9.57;8.30;;;4.20;99.90;;;;;;4977836;28;20392;-79
2021/01/02 00:43:04;;;;;;;14.17;9.77;;;4.20;99.90;;;;;;4970159;28;20421;-80
2021/01/02 00:45:33;;;;;;;11.80;9.57;;;4.20;99.90;;;;;;4983398;28;20406;-80
2021/01/02 00:48:02;;;;;;;12.10;7.20;;;4.20;99.90;;;;;;4981933;28;20469;-80
2021/01/02 00:51:09;;;;;;;11.37;7.07;;;4.20;99.90;;;;;;4962190;29;20791;-80
2021/01/02 00:53:51;;;;;;;14.67;9.13;;;4.20;99.90;;;;;;4926681;29;20480;-81
2021/01/02 00:56:33;;;;;;;12.93;8.43;;;4.20;99.90;;;;;;4948827;29;20493;-79
2021/01/02 00:59:40;;;;;;;13.10;8.10;;;4.20;99.90;;;;;;4980877;28;20768;-80
2021/01/02 01:02:40;;;;;;;8.33;7.40;;;4.20;99.90;;;;;;4963143;28;20918;-80
2021/01/02 01:05:08;;;;;;;9.13;7.77;;;4.20;99.90;;;;;;4967741;28;20409;-80
2021/01/02 01:07:36;;;;;;;11.83;7.00;;;4.10;99.90;;;;;;4943834;29;20463;-80
2021/01/02 01:10:08;;;;;;;13.23;8.97;;;4.10;99.90;;;;;;4938000;29;20420;-80
2021/01/02 01:12:41;;;;;;;13.93;7.27;;;4.10;99.90;;;;;;4958465;28;20992;-79
2021/01/02 01:15:09;;;;;;;10.10;8.37;;;4.10;99.90;;;;;;4928397;29;20412;-80
2021/01/02 01:17:50;;;;;;;11.93;9.00;;;4.10;99.90;;;;;;4944448;29;20392;-80
2021/01/02 01:20:17;;;;;;;13.03;8.10;;;4.10;99.90;;;;;;4942388;29;20840;-80
2021/01/02 01:23:01;;;;;;;11.77;8.93;;;4.10;99.90;;;;;;4945456;28;20414;-80
2021/01/02 01:25:51;;;;;;;12.57;8.70;;;4.10;99.90;;;;;;4949802;28;20373;-80
2021/01/02 01:28:22;;;;;;;9.60;7.90;;;4.10;99.90;;;;;;4963200;28;20454;-80
2021/01/02 01:30:53;;;;;;;14.40;8.60;;;4.00;99.90;;;;;;4964307;28;20869;-80
2021/01/02 01:33:27;;;;;;;11.97;8.43;;;4.10;99.90;;;;;;4981454;28;20512;-80
2021/01/02 01:36:01;;;;;;;17.27;10.20;;;4.10;99.90;;;;;;4949305;28;20411;-80
2021/01/02 01:38:30;;;;;;;15.40;9.13;;;4.10;99.90;;;;;;4965491;28;20384;-80
2021/01/02 01:41:14;;;;;;;12.43;8.47;;;4.00;99.90;;;;;;4980155;28;20400;-80
2021/01/02 01:44:13;;;;;;;11.43;8.97;;;4.10;99.90;;;;;;5043567;28;20406;-80
2021/01/02 01:46:53;;;;;;;8.97;7.40;;;4.10;99.90;;;;;;5043400;28;20418;-79
2021/01/02 01:49:50;;;;;;;12.50;8.43;;;4.00;99.90;;;;;;5033117;28;20413;-80
2021/01/02 01:52:38;;;;;;;13.10;8.40;;;4.00;99.90;;;;;;5083133;28;20492;-80
2021/01/02 01:55:08;;;;;;;14.63;7.70;;;4.00;99.90;;;;;;5050481;28;20432;-80
2021/01/02 01:57:39;;;;;;;12.33;7.60;;;4.00;99.90;;;;;;5065811;28;20421;-80
2021/01/02 02:00:15;;;;;;;9.43;6.77;;;4.00;99.90;;;;;;5016158;28;20791;-80
2021/01/02 02:03:01;;;;;;;11.50;8.33;;;4.00;99.90;;;;;;5065455;28;20453;-80
2021/01/02 02:05:33;;;;;;;10.57;7.87;;;4.00;99.90;;;;;;5049087;28;20394;-80
2021/01/02 02:08:03;;;;;;;10.77;7.73;;;3.90;99.90;;;;;;5005212;28;20498;-79
2021/01/02 02:10:32;;;;;;;15.53;8.10;;;4.00;99.90;;;;;;4989550;28;21040;-80
2021/01/02 02:13:15;;;;;;;11.73;8.60;;;3.90;99.90;;;;;;4927900;29;20459;-80
2021/01/02 02:15:54;;;;;;;8.03;6.13;;;4.00;99.90;;;;;;4943950;29;20468;-80
2021/01/02 02:18:22;;;;;;;12.20;7.30;;;3.90;99.90;;;;;;4943884;29;20389;-80
2021/01/02 02:20:53;;;;;;;8.93;6.57;;;3.90;99.90;;;;;;4912098;29;20861;-80
2021/01/02 02:23:47;;;;;;;12.20;8.90;;;3.80;99.90;;;;;;4943873;29;20415;-80
2021/01/02 02:26:32;;;;;;;12.20;6.63;;;3.70;99.90;;;;;;4915091;29;20428;-80
2021/01/02 02:29:24;;;;;;;11.17;6.07;;;3.70;99.90;;;;;;4928596;29;20419;-80
2021/01/02 02:31:55;;;;;;;9.90;6.97;;;3.70;99.90;;;;;;4943450;29;20452;-80
2021/01/02 02:34:23;;;;;;;13.23;8.00;;;3.70;99.90;;;;;;4927870;29;20416;-79
2021/01/02 02:36:51;;;;;;;7.70;6.73;;;3.70;99.90;;;;;;4928702;29;20400;-79
2021/01/02 02:39:17;;;;;;;8.80;6.67;;;3.60;99.90;;;;;;4965415;28;20886;-80
2021/01/02 02:41:51;;;;;;;10.40;6.83;;;3.60;99.90;;;;;;5001947;28;20364;-80
2021/01/02 02:44:22;;;;;;;11.20;7.07;;;3.50;99.90;;;;;;5021441;28;20403;-80
2021/01/02 02:46:52;;;;;;;11.20;8.13;;;3.50;99.90;;;;;;5025100;28;20400;-79
2021/01/02 02:49:23;;;;;;;7.53;6.30;;;3.30;99.90;;;;;;5001790;28;20416;-79
2021/01/02 02:52:11;;;;;;;10.20;6.00;;;3.40;99.90;;;;;;4986837;28;20504;-79
2021/01/02 02:54:38;;;;;;;11.73;6.47;;;3.30;99.90;;;;;;4970989;28;20397;-80
2021/01/02 02:57:06;;;;;;;8.27;6.23;;;3.30;99.90;;;;;;4986309;28;20432;-79
2021/01/02 02:59:32;;;;;;;7.90;5.57;;;3.30;99.90;;;;;;4986418;28;20444;-79
2021/01/02 03:02:05;;;;;;;12.43;7.07;;;3.30;99.90;;;;;;4980849;28;20356;-80
2021/01/02 03:04:33;;;;;;;9.53;5.83;;;3.30;99.90;;;;;;4995674;28;20418;-80
2021/01/02 03:07:03;;;;;;;9.20;7.00;;;3.20;99.90;;;;;;4981598;28;20551;-80
2021/01/02 03:09:31;;;;;;;6.67;5.73;;;3.30;99.90;;;;;;4998674;28;20924;-80
2021/01/02 03:11:59;;;;;;;11.10;8.20;;;3.30;99.90;;;;;;4982226;28;20478;-80
2021/01/02 03:14:25;;;;;;;8.60;6.60;;;3.00;99.90;;;;;;4983570;28;20384;-79
2021/01/02 03:16:57;;;;;;;14.10;7.47;;;3.10;99.90;;;;;;4990536;28;20859;-80
2021/01/02 03:19:25;;;;;;;8.50;5.90;;;3.20;99.90;;;;;;5025647;28;20395;-80
2021/01/02 03:21:53;;;;;;;9.80;7.90;;;3.30;99.90;;;;;;5043677;28;20396;-80
2021/01/02 03:24:39;;;;;;;11.23;7.93;;;3.30;99.90;;;;;;5040335;28;20419;-79
2021/01/02 03:27:04;;;;;;;9.73;6.83;;;3.40;99.90;;;;;;5023470;28;21042;-79
2021/01/02 03:29:33;;;;;;;7.90;6.33;;;3.40;99.90;;;;;;5008950;28;20195;-80
2021/01/02 03:31:59;;;;;;;8.13;6.83;;;3.40;99.90;;;;;;5024379;28;20459;-80
2021/01/02 03:34:25;;;;;;;9.93;6.47;;;3.40;99.90;;;;;;5025196;28;20434;-80
2021/01/02 03:36:51;;;;;;;8.50;6.93;;;3.40;99.90;;;;;;5026005;28;20174;-80
2021/01/02 03:39:16;;;;;;;8.37;5.83;;;3.20;99.90;;;;;;4986405;28;20706;-79
2021/01/02 03:41:46;;;;;;;10.53;8.13;;;3.30;99.90;;;;;;4962797;29;20246;-80
2021/01/02 03:44:11;;;;;;;10.67;5.50;;;3.20;99.90;;;;;;4963284;29;20442;-80
2021/01/02 03:46:38;;;;;;;13.20;6.73;;;3.20;99.90;;;;;;4962504;29;20382;-80
2021/01/02 03:49:07;;;;;;;13.80;7.67;;;3.20;99.90;;;;;;4945787;28;20254;-80
2021/01/02 03:51:35;;;;;;;13.27;7.60;;;3.20;99.90;;;;;;4954510;29;20431;-80
2021/01/02 03:54:01;;;;;;;10.17;7.70;;;3.20;99.90;;;;;;4929905;29;20379;-80
2021/01/02 03:56:27;;;;;;;10.00;7.70;;;3.20;99.90;;;;;;4957328;28;20220;-79
2021/01/02 03:58:54;;;;;;;9.30;6.23;;;3.20;99.90;;;;;;4960947;28;20188;-80
2021/01/02 04:01:20;;;;;;;5.90;5.40;;;3.20;99.90;;;;;;4944247;29;20195;-80
2021/01/02 04:03:46;;;;;;;10.70;7.57;;;3.20;99.90;;;;;;4942118;29;20412;-79
2021/01/02 04:06:12;;;;;;;12.23;7.90;;;3.20;99.90;;;;;;4921755;29;20199;-79
2021/01/02 04:08:39;;;;;;;7.60;6.10;;;3.20;99.90;;;;;;4945061;29;20585;-79
2021/01/02 04:11:06;;;;;;;14.63;7.80;;;3.20;99.90;;;;;;4957905;29;20171;-80
2021/01/02 04:13:31;;;;;;;9.67;8.10;;;3.20;99.90;;;;;;4953044;29;20529;-79
2021/01/02 04:15:57;;;;;;;9.13;5.93;;;3.20;99.90;;;;;;4981172;28;20385;-80
2021/01/02 04:18:23;;;;;;;8.03;7.00;;;3.20;99.90;;;;;;4980606;28;20533;-80
2021/01/02 04:20:49;;;;;;;15.63;7.60;;;3.20;99.90;;;;;;4949009;28;20457;-80
2021/01/02 04:23:20;;;;;;;9.90;6.70;;;3.10;99.90;;;;;;4981824;28;20314;-80
2021/01/02 04:25:48;;;;;;;10.33;6.33;;;3.20;99.90;;;;;;4966748;28;20517;-80
2021/01/02 04:28:15;;;;;;;11.03;7.40;;;3.20;99.90;;;;;;4984448;28;20874;-79
2021/01/02 04:30:41;;;;;;;8.70;7.20;;;3.10;99.90;;;;;;4984836;28;20177;-79
2021/01/02 04:33:11;;;;;;;7.87;7.17;;;3.10;99.90;;;;;;4985002;28;20860;-80
2021/01/02 04:35:37;;;;;;;12.13;8.13;;;3.00;99.90;;;;;;4968414;28;20209;-80
2021/01/02 04:38:04;;;;;;;11.20;7.47;;;2.90;99.90;;;;;;5033232;28;20442;-80
2021/01/02 04:40:30;;;;;;;10.40;7.50;;;2.90;99.90;;;;;;5040296;28;20172;-80
2021/01/02 04:42:56;;;;;;;9.77;6.70;;;2.90;99.90;;;;;;5023796;28;20407;-80
2021/01/02 04:45:24;;;;;;;11.53;9.17;;;3.00;99.90;;;;;;5044790;28;20397;-79
2021/01/02 04:47:51;;;;;;;7.27;6.33;;;3.00;99.90;;;;;;5054979;28;20280;-79
2021/01/02 04:50:18;;;;;;;13.57;8.60;;;3.00;99.90;;;;;;5046185;28;20450;-80
2021/01/02 04:52:45;;;;;;;8.73;7.70;;;3.00;99.90;;;;;;5024564;28;20560;-80
2021/01/02 04:55:16;;;;;;;11.13;8.13;;;3.00;99.90;;;;;;5025059;28;20415;-79
2021/01/02 04:57:45;;;;;;;10.17;7.63;;;3.10;99.90;;;;;;5005386;28;20415;-80
2021/01/02 05:00:11;;;;;;;21.70;9.47;;;3.00;99.90;;;;;;4989961;28;20471;-79
2021/01/02 05:02:42;;;;;;;10.90;7.33;;;3.00;99.90;;;;;;5005917;28;20985;-80
2021/01/02 05:05:08;;;;;;;13.83;8.83;;;3.00;99.90;;;;;;5006567;28;20439;-79
2021/01/02 05:07:35;;;;;;;9.60;6.60;;;3.00;99.90;;;;;;5004633;28;20481;-79
2021/01/02 05:10:00;;;;;;;11.27;5.90;;;3.00;99.90;;;;;;5005825;28;20409;-80
2021/01/02 05:12:30;;;;;;;14.23;7.43;;;3.00;99.90;;;;;;5021808;28;20463;-80
2021/01/02 05:15:08;;;;;;;10.43;7.70;;;2.90;99.90;;;;;;5021742;28;20239;-79
2021/01/02 05:17:36;;;;;;;10.17;6.80;;;2.90;99.90;;;;;;5021793;28;20421;-80
2021/01/02 05:20:06;;;;;;;8.63;6.60;;;2.90;99.90;;;;;;5022253;28;20519;-79
2021/01/02 05:22:34;;;;;;;11.90;7.63;;;2.90;99.90;;;;;;5005816;28;20416;-80
2021/01/02 05:25:12;;;;;;;12.17;7.87;;;2.90;99.90;;;;;;4971354;28;20413;-79
2021/01/02 05:27:46;;;;;;;12.83;8.20;;;3.00;99.90;;;;;;4991083;28;20516;-80
2021/01/02 05:30:29;;;;;;;10.73;7.80;;;2.90;99.90;;;;;;5026324;28;20522;-79
2021/01/02 05:33:01;;;;;;;14.33;7.47;;;2.80;99.90;;;;;;5024895;28;20451;-80
2021/01/02 05:35:30;;;;;;;13.90;7.90;;;2.80;99.90;;;;;;5047604;28;20406;-80
2021/01/02 05:38:27;;;;;;;8.23;7.10;;;2.80;99.90;;;;;;5046341;28;20421;-80
2021/01/02 05:40:59;;;;;;;13.57;7.70;;;2.90;99.90;;;;;;5027898;28;20403;-80
2021/01/02 05:43:28;;;;;;;6.67;5.57;;;2.90;99.90;;;;;;5008864;28;20457;-80
2021/01/02 05:45:56;;;;;;;8.37;6.57;;;3.00;99.90;;;;;;5025260;28;20407;-79
2021/01/02 05:48:26;;;;;;;10.80;7.23;;;3.00;99.90;;;;;;5025338;28;20579;-80
2021/01/02 05:51:00;;;;;;;8.80;6.97;;;2.90;99.90;;;;;;5004886;28;20431;-80
2021/01/02 05:53:34;;;;;;;11.93;6.97;;;2.90;99.90;;;;;;4982362;28;20465;-79
2021/01/02 05:56:08;;;;;;;11.40;7.50;;;2.90;99.90;;;;;;4982158;28;20430;-79
2021/01/02 05:58:55;;;;;;;11.50;6.70;;;2.80;99.90;;;;;;4961347;29;20415;-80
2021/01/02 06:01:20;;;;;;;8.73;6.67;;;2.80;99.90;;;;;;4960647;29;20782;-79
2021/01/02 06:03:48;;;;;;;11.27;7.53;;;2.80;99.90;;;;;;4925078;29;20421;-80
2021/01/02 06:06:17;;;;;;;14.20;8.00;;;2.80;99.90;;;;;;4941917;29;20290;-80
2021/01/02 06:08:52;;;;;;;12.00;6.90;;;2.80;99.90;;;;;;4906782;29;20421;-80
2021/01/02 06:11:22;;;;;;;8.93;7.40;;;2.80;99.90;;;;;;4885304;29;20423;-80
2021/01/02 06:13:53;;;;;;;18.30;7.97;;;2.70;99.90;;;;;;4868280;29;20465;-80
2021/01/02 06:16:21;;;;;;;9.90;6.87;;;2.80;99.90;;;;;;4868248;29;20410;-80
2021/01/02 06:19:11;;;;;;;6.60;5.07;;;2.80;99.90;;;;;;4854340;29;20411;-80
2021/01/02 06:21:37;;;;;;;16.27;7.03;;;2.80;99.90;;;;;;4876424;29;20425;-79
2021/01/02 06:24:07;;;;;;;9.40;7.33;;;2.70;99.90;;;;;;4882448;29;20535;-79
2021/01/02 06:26:33;;;;;;;11.83;9.30;;;2.70;99.90;;;;;;4924913;29;20428;-77
2021/01/02 06:29:00;;;;;;;12.27;8.10;;;2.70;99.90;;;;;;4923353;29;20409;-80
2021/01/02 06:31:33;;;;;;;9.73;7.37;;;2.70;99.90;;;;;;4907162;29;20196;-80
2021/01/02 06:34:05;;;;;;;13.60;6.60;;;2.80;99.90;;;;;;4923389;29;20828;-80
2021/01/02 06:36:39;;;;;;;12.50;6.53;;;2.80;99.90;;;;;;4904037;29;20462;-80
2021/01/02 06:39:19;;;;;;;10.00;7.83;;;2.80;99.90;;;;;;4921331;29;20430;-79
2021/01/02 06:41:46;;;;;;;13.47;8.30;;;2.80;99.90;;;;;;4887185;29;20459;-80
2021/01/02 06:44:41;;;;;;;9.30;6.73;;;2.80;99.90;;;;;;4911233;29;20441;-80
2021/01/02 06:47:19;;;;;;;13.73;6.73;;;2.70;99.90;;;;;;4950003;28;20950;-80
2021/01/02 06:49:47;;;;;;;14.00;7.53;;;2.70;99.90;;;;;;4967721;28;20793;-80
2021/01/02 06:52:32;;;;;;;9.93;7.67;;;2.70;99.90;;;;;;4913083;29;20988;-80
2021/01/02 06:55:21;;;;;;;14.73;8.83;;;2.70;99.90;;;;;;4928984;29;20419;-80
2021/01/02 06:57:51;;;;;;;10.90;7.83;;;2.70;99.90;;;;;;4928985;28;20408;-80
2021/01/02 07:00:25;;;;;;;8.87;7.70;;;2.70;99.90;;;;;;4966349;28;20403;-80
2021/01/02 07:02:53;;;;;;;12.10;7.77;;;2.70;99.90;;;;;;4966759;28;20402;-79
2021/01/02 07:05:49;;;;;;;11.90;9.03;;;2.70;99.90;;;;;;4976316;28;20468;-80
2021/01/02 07:08:43;;;;;;;13.67;8.07;;;2.80;99.90;;;;;;4966886;28;20407;-79
2021/01/02 07:11:26;;;;;;;13.93;6.60;;;2.80;99.90;;;;;;4967627;28;20408;-80
2021/01/02 07:14:24;;;;;;;7.77;6.90;;;2.70;99.90;;;;;;4989760;28;20427;-80
2021/01/02 07:17:00;;;;;;;13.50;6.90;;;2.80;99.90;;;;;;5022382;28;20414;-79
2021/01/02 07:19:35;;;;;;;9.33;7.70;;;2.70;99.90;;;;;;5005930;28;20451;-80
2021/01/02 07:22:24;;;;;;;8.77;7.30;;;2.60;99.90;;;;;;5006995;28;20409;-80
2021/01/02 07:24:54;;;;;;;10.50;8.60;;;2.70;99.90;;;;;;5045176;28;20441;-80
2021/01/02 07:27:25;;;;;;;11.63;7.00;;;2.70;99.90;;;;;;5048292;28;20818;-80
2021/01/02 07:29:57;;;;;;;6.70;5.50;;;2.70;99.90;;;;;;5047767;28;20437;-80
2021/01/02 07:32:27;;;;;;;11.00;7.83;;;2.70;99.90;;;;;;5048281;28;20651;-80
2021/01/02 07:34:59;;;;;;;9.23;7.17;;;2.70;99.90;;;;;;5031642;28;20428;-80
2021/01/02 07:37:31;;;;;;;13.53;8.10;;;2.70;99.90;;;;;;5049234;28;20746;-79
2021/01/02 07:40:06;;;;;;;8.57;6.90;;;2.80;99.90;;;;;;5048286;28;20388;-80
2021/01/02 07:42:54;;;;;;;12.73;7.90;;;2.80;99.90;;;;;;5025768;28;20420;-80
2021/01/02 07:45:22;;;;;;;10.47;8.03;;;2.80;99.90;;;;;;5009878;28;20507;-79
2021/01/02 07:47:54;;;;;;;7.87;7.00;;;2.80;99.90;;;;;;5009055;28;20463;-80
2021/01/02 07:50:21;;;;;;;11.90;8.10;;;2.80;99.90;;;;;;4993797;28;20785;-80
2021/01/02 07:52:54;;;;;;;10.33;8.07;;;2.80;99.90;;;;;;4994073;28;21010;-80
2021/01/02 07:55:24;;;;;;;8.63;6.87;;;2.80;99.90;;;;;;4992820;28;20420;-80
2021/01/02 07:57:50;;;;;;;10.43;7.07;;;2.80;99.90;;;;;;5004928;28;20408;-80
2021/01/02 08:00:17;;;;;;;16.43;9.60;;;2.80;99.90;;;;;;5004642;28;20496;-80
2021/01/02 08:02:44;;;;;;;10.13;7.53;;;2.80;99.90;;;;;;4988478;28;20190;-80
2021/01/02 08:05:14;;;;;;;9.83;7.27;;;2.80;99.90;;;;;;4988752;28;20421;-80
2021/01/02 08:07:41;;;;;;;13.30;7.40;;;2.90;99.90;;;;;;5005196;28;20513;-80
2021/01/02 08:10:12;;;;;;;13.20;7.60;;;2.90;99.90;;;;;;4969186;28;20495;-79
2021/01/02 08:12:47;;;;;;;14.50;7.77;;;2.90;99.90;;;;;;4985827;28;20434;-80
2021/01/02 08:15:17;;;;;;;13.63;8.60;;;2.90;99.90;;;;;;4985045;28;20899;-80
2021/01/02 08:17:45;;;;;;;7.57;6.77;;;2.90;99.90;;;;;;4953015;28;20406;-80
2021/01/02 08:20:12;;;;;;;11.40;7.50;;;2.90;99.90;;;;;;4933109;29;20429;-80
2021/01/02 08:22:40;;;;;;;13.53;8.93;;;3.00;99.90;;;;;;4981008;28;20434;-80
2021/01/02 08:25:14;;;;;;;9.77;8.70;;;3.00;99.90;;;;;;4948877;29;20393;-80
2021/01/02 08:27:40;;;;;;;9.07;7.60;;;3.00;99.90;;;;;;4984284;28;20436;-79
2021/01/02 08:30:09;;;;;;;9.67;5.87;;;3.00;99.90;;;;;;5022973;28;20462;-80
2021/01/02 08:32:38;;;;;;;10.63;6.70;;;3.00;99.90;;;;;;5005632;28;20558;-79
2021/01/02 08:35:25;;;;;;;10.10;7.37;;;3.00;99.90;;;;;;5022105;28;20470;-80
2021/01/02 08:37:51;;;;;;;9.70;7.60;;;3.10;99.90;;;;;;5021082;28;20733;-80
2021/01/02 08:40:19;;;;;;;11.73;8.17;;;3.10;99.90;;;;;;4987561;28;20447;-80
2021/01/02 08:42:47;;;;;;;9.77;7.00;;;3.20;99.90;;;;;;4997442;28;20183;-80
2021/01/02 08:45:25;;;;;;;9.20;8.10;;;3.20;99.90;;;;;;4982171;28;20415;-80
2021/01/02 08:48:05;;;;;;;14.40;8.60;;;3.20;99.90;;;;;;5001264;28;20475;-79
2021/01/02 08:50:33;;;;;;;8.47;6.93;;;3.20;99.90;;;;;;5009191;28;20420;-80
2021/01/02 08:52:58;;;;;;;7.67;6.10;;;3.20;99.90;;;;;;5022818;28;20462;-78
2021/01/02 08:55:29;;;;;;;11.80;6.67;;;3.20;99.90;;;;;;5041658;28;20391;-80
2021/01/02 08:57:55;;;;;;;9.40;7.87;;;3.20;99.90;;;;;;5023267;28;20189;-80
2021/01/02 09:00:29;;;;;;;6.40;5.30;;;3.30;99.90;;;;;;5009414;28;20441;-80
2021/01/02 09:03:08;;;;;;;10.47;9.33;;;3.30;99.90;;;;;;5006041;28;20428;-80
2021/01/02 09:05:37;;;;;;;12.23;8.47;;;3.30;99.90;;;;;;5005938;28;20772;-80
2021/01/02 09:08:08;;;;;;;11.53;6.67;;;3.30;99.90;;;;;;5005704;28;20416;-80
2021/01/02 09:10:44;;;;;;;15.43;7.50;;;3.30;99.90;;;;;;4983079;28;20922;-80
2021/01/02 09:13:12;;;;;;;7.30;6.50;;;3.10;99.90;;;;;;4992031;28;20441;-79
2021/01/02 09:15:45;;;;;;;9.20;6.03;;;3.20;99.90;;;;;;5006214;28;20478;-80
2021/01/02 09:18:14;;;;;;;8.93;6.80;;;3.20;99.90;;;;;;4963347;29;20424;-80
2021/01/02 09:20:41;;;;;;;12.33;7.20;;;3.10;99.90;;;;;;4963237;29;20439;-80
2021/01/02 09:23:09;;;;;;;13.63;7.90;;;3.10;99.90;;;;;;4963403;29;20493;-80
2021/01/02 09:25:39;;;;;;;10.80;7.37;;;3.20;99.90;;;;;;4964072;29;20422;-80
2021/01/02 09:28:15;;;;;;;11.10;7.50;;;3.20;99.90;;;;;;4963420;29;20419;-80
2021/01/02 09:30:41;;;;;;;8.77;6.00;;;3.20;99.90;;;;;;4947560;29;20434;-80
2021/01/02 09:33:08;;;;;;;12.63;6.30;;;3.30;99.90;;;;;;4971734;29;20446;-79
2021/01/02 09:35:36;;;;;;;10.00;7.10;;;3.30;99.90;;;;;;4978247;29;20411;-79
2021/01/02 09:38:03;;;;;;;10.80;7.10;;;3.40;99.90;;;;;;4961326;29;20566;-80
2021/01/02 09:40:29;;;;;;;11.07;8.33;;;3.40;99.90;;;;;;4963463;28;20406;-80
2021/01/02 09:42:56;;;;;;;12.40;8.70;;;3.30;99.90;;;;;;4968083;28;20413;-80
2021/01/02 09:45:23;;;;;;;5.80;4.90;;;3.40;99.90;;;;;;4986493;28;20886;-80
2021/01/02 09:47:53;;;;;;;8.70;7.73;;;3.40;99.90;;;;;;4987285;28;20532;-80
2021/01/02 09:50:19;;;;;;;12.53;7.67;;;3.30;99.90;;;;;;5029889;28;20423;-80
2021/01/02 09:52:48;;;;;;;8.80;6.90;;;3.40;99.90;;;;;;5034819;28;20432;-80
2021/01/02 09:55:14;;;;;;;10.93;6.70;;;3.30;99.90;;;;;;5005472;28;20412;-80
2021/01/02 09:57:40;;;;;;;8.27;6.93;;;3.40;99.90;;;;;;5006343;28;20216;-80
2021/01/02 10:00:09;;;;;;;8.00;6.70;;;3.40;99.90;;;;;;4990852;28;20417;-79
2021/01/02 10:02:35;;;;;;;7.33;6.53;;;3.40;99.90;;;;;;5007126;28;20475;-80
2021/01/02 10:05:01;;;;;;;9.43;6.40;;;3.50;99.90;;;;;;4990654;28;20496;-80
2021/01/02 10:07:30;;;;;;;9.70;7.50;;;3.60;99.90;;;;;;5006763;28;20189;-80
2021/01/02 10:09:58;;;;;;;11.03;6.83;;;3.70;99.90;;;;;;5007405;28;20411;-80
2021/01/02 10:12:26;;;;;;;10.07;6.80;;;3.70;99.90;;;;;;5008344;28;20571;-80
2021/01/02 10:14:52;;;;;;;9.03;6.63;;;3.80;99.90;;;;;;5009311;28;20188;-80
2021/01/02 10:17:18;;;;;;;11.33;6.93;;;3.70;99.90;;;;;;4998758;28;20381;-78
2021/01/02 10:19:46;;;;;;;12.00;6.33;;;3.70;99.90;;;;;;5019914;28;20207;-78
2021/01/02 10:22:16;;;;;;;23.43;8.40;;;3.80;99.90;;;;;;5005363;28;20421;-77
2021/01/02 10:24:47;;;;;;;10.87;5.90;;;3.70;99.90;;;;;;4990038;28;20393;-80
2021/01/02 10:27:13;;;;;;;12.97;7.80;;;3.90;99.90;;;;;;5004737;28;20435;-80
2021/01/02 10:29:44;;;;;;;6.93;6.00;;;3.90;99.90;;;;;;4984346;28;20412;-80
2021/01/02 10:32:17;;;;;;;7.00;5.33;;;4.00;99.90;;;;;;5002758;28;20445;-80
2021/01/02 10:34:48;;;;;;;14.07;7.70;;;4.00;99.90;;;;;;5044269;28;20377;-80
2021/01/02 10:37:20;;;;;;;9.40;6.30;;;4.00;99.90;;;;;;5062223;28;20477;-79
2021/01/02 10:39:46;;;;;;;10.50;7.20;;;4.10;99.90;;;;;;5045627;28;20437;-80
2021/01/02 10:42:17;;;;;;;10.50;5.73;;;4.20;99.90;;;;;;5040398;28;20411;-80
2021/01/02 10:44:47;;;;;;;8.10;6.67;;;4.20;99.90;;;;;;5008800;28;20435;-79
2021/01/02 10:47:18;;;;;;;9.33;6.00;;;4.10;99.90;;;;;;5023844;28;20381;-80
2021/01/02 10:49:44;;;;;;;15.00;6.60;;;4.00;99.90;;;;;;4980680;28;20425;-79
2021/01/02 10:52:15;;;;;;;6.07;5.40;;;4.10;99.90;;;;;;4949232;28;20454;-79
2021/01/02 10:54:42;;;;;;;10.70;7.13;;;4.10;99.90;;;;;;4964991;28;20410;-80
2021/01/02 10:57:10;;;;;;;10.60;5.20;;;3.90;99.90;;;;;;4965324;28;20414;-80
2021/01/02 10:59:43;;;;;;;7.23;5.37;;;4.00;99.90;;;;;;4941905;29;20401;-80
2021/01/02 11:02:14;;;;;;;6.40;5.20;;;4.00;99.90;;;;;;4924987;29;20484;-79
2021/01/02 11:04:40;;;;;;;7.90;6.30;;;4.10;99.90;;;;;;4909165;29;20498;-80
2021/01/02 11:07:07;;;;;;;8.90;6.70;;;4.00;99.90;;;;;;4941551;29;20419;-80
2021/01/02 11:09:33;;;;;;;6.87;5.87;;;4.10;99.90;;;;;;4925182;29;20451;-80
2021/01/02 11:12:00;;;;;;;7.97;5.60;;;4.20;99.90;;;;;;4927554;28;20382;-79
2021/01/02 11:14:29;;;;;;;10.07;5.80;;;4.30;99.90;;;;;;4970243;28;20421;-80
2021/01/02 11:16:56;;;;;;;8.97;7.10;;;4.30;99.90;;;;;;4951603;28;20406;-79
2021/01/02 11:19:24;;;;;;;9.57;7.07;;;4.30;99.90;;;;;;4968166;28;20477;-78
2021/01/02 11:21:52;;;;;;;10.23;7.93;;;4.20;99.90;;;;;;4994334;28;20412;-79
2021/01/02 11:24:22;;;;;;;7.77;6.07;;;4.30;99.90;;;;;;5026203;28;20404;-78
2021/01/02 11:26:52;;;;;;;10.37;6.37;;;4.30;99.90;;;;;;5036403;28;20388;-77
2021/01/02 11:29:22;;;;;;;19.97;8.07;;;4.30;99.90;;;;;;4972259;28;20416;-77
2021/01/02 11:31:49;;;;;;;11.70;6.80;;;4.20;99.90;;;;;;5019393;28;20417;-79
2021/01/02 11:34:18;;;;;;;8.93;6.70;;;4.20;99.90;;;;;;5003157;28;20408;-76
2021/01/02 11:36:49;;;;;;;9.40;6.23;;;4.30;99.90;;;;;;5003521;28;20381;-77
2021/01/02 11:39:16;;;;;;;9.27;6.47;;;4.30;99.90;;;;;;4998943;28;20421;-78
2021/01/02 11:41:42;;;;;;;7.90;5.37;;;4.30;99.90;;;;;;4980694;28;20845;-78
2021/01/02 11:44:10;;;;;;;11.47;8.57;;;4.30;99.90;;;;;;5011960;28;20415;-77
2021/01/02 11:46:40;;;;;;;8.50;6.10;;;4.30;99.90;;;;;;5002362;28;20193;-77
2021/01/02 11:49:09;;;;;;;12.50;7.90;;;4.30;99.90;;;;;;5002879;28;20430;-77
2021/01/02 11:51:38;;;;;;;10.33;7.10;;;4.30;99.90;;;;;;5017712;28;20438;-77
2021/01/02 11:54:05;;;;;;;9.13;7.50;;;4.20;99.90;;;;;;5000893;28;20434;-77
2021/01/02 11:56:34;;;;;;;15.07;8.37;;;4.20;99.90;;;;;;4974993;28;20421;-80
2021/01/02 11:59:05;;;;;;;6.90;6.23;;;4.20;99.90;;;;;;4970165;28;20387;-80
2021/01/02 12:01:35;;;;;;;6.10;5.50;;;4.20;99.90;;;;;;4923347;29;20624;-80
2021/01/02 12:04:01;;;;;;;24.87;8.30;;;4.30;99.90;;;;;;4922567;29;20419;-80
2021/01/02 12:06:29;;;;;;;14.63;8.33;;;4.20;99.90;;;;;;4906256;29;20384;-80
2021/01/02 12:08:57;;;;;;;12.17;6.70;;;4.10;99.90;;;;;;4922792;29;20435;-80
2021/01/02 12:11:30;;;;;;;8.03;5.80;;;4.00;99.90;;;;;;4908082;29;20407;-80
2021/01/02 12:13:56;;;;;;;13.83;7.30;;;4.00;99.90;;;;;;4925497;29;20467;-79
2021/01/02 12:16:31;;;;;;;9.77;8.00;;;4.00;99.90;;;;;;4909938;29;20424;-81
2021/01/02 12:18:58;;;;;;;11.20;8.43;;;4.10;99.90;;;;;;4922130;29;20464;-81
2021/01/02 12:21:25;;;;;;;9.17;7.87;;;4.10;99.90;;;;;;4905322;29;20441;-80
2021/01/02 12:23:54;;;;;;;10.53;8.07;;;4.10;99.90;;;;;;4916753;29;20421;-77
2021/01/02 12:26:21;;;;;;;8.10;5.30;;;4.00;99.90;;;;;;4956901;29;20414;-78
2021/01/02 12:28:50;;;;;;;11.90;8.90;;;4.10;99.90;;;;;;4978877;29;20425;-78
2021/01/02 12:31:23;;;;;;;13.63;8.03;;;4.10;99.90;;;;;;4976991;28;20440;-81
2021/01/02 12:33:53;;;;;;;9.93;6.40;;;4.10;99.90;;;;;;4965820;29;20462;-81
2021/01/02 12:36:32;;;;;;;11.13;7.70;;;4.10;99.90;;;;;;4980627;28;20440;-80
2021/01/02 12:38:58;;;;;;;7.67;6.60;;;4.10;99.90;;;;;;4980095;28;20410;-80
2021/01/02 12:41:25;;;;;;;11.13;8.10;;;4.20;99.90;;;;;;4964399;29;20408;-80
2021/01/02 12:43:54;;;;;;;9.63;6.33;;;4.10;99.90;;;;;;4969681;29;20434;-78
2021/01/02 12:46:19;;;;;;;17.80;8.73;;;4.10;99.90;;;;;;4976885;29;20398;-80
2021/01/02 12:48:48;;;;;;;12.07;8.40;;;4.10;99.90;;;;;;4978981;28;20243;-80
2021/01/02 12:51:20;;;;;;;11.60;8.47;;;4.10;99.90;;;;;;4964623;29;20415;-79
2021/01/02 12:53:48;;;;;;;8.93;8.03;;;4.10;99.90;;;;;;4985340;28;20447;-80
2021/01/02 12:56:15;;;;;;;13.50;8.57;;;4.20;99.90;;;;;;4990523;28;20384;-80
2021/01/02 12:58:41;;;;;;;11.57;8.23;;;4.20;99.90;;;;;;5003870;28;20391;-81
2021/01/02 13:01:07;;;;;;;8.53;6.60;;;4.20;99.90;;;;;;4988887;28;20402;-79
2021/01/02 13:03:36;;;;;;;11.03;9.53;;;4.20;99.90;;;;;;5027916;28;20441;-80
2021/01/02 13:06:02;;;;;;;17.10;8.17;;;4.20;99.90;;;;;;5027372;28;20482;-80
2021/01/02 13:08:29;;;;;;;9.83;7.37;;;4.20;99.90;;;;;;4988378;28;20420;-81
2021/01/02 13:10:56;;;;;;;14.63;7.70;;;4.20;99.90;;;;;;4965181;29;20419;-80
2021/01/02 13:13:26;;;;;;;8.83;6.13;;;4.30;99.90;;;;;;4950299;29;20454;-80
2021/01/02 13:15:52;;;;;;;9.00;6.97;;;4.30;99.90;;;;;;4967007;28;20418;-80